Muy Muy, Nicaragua

7:19 AM CST on January 29, 2015 (GMT -0600)
Juigalpa | Change Station
CLOSE
Current Station
Airport
Location: Juigalpa,
Elevation: 295 ft
Nearby Weather Stations

Elev 295 ft 12.10 °N, 85.37 °W | Updated 19 minutes ago

Partly Cloudy
Partly Cloudy
72 °F
Feels Like 72 °F
N
12
Wind Variable Wind from ENE

Today
High -- | Low -- °F
--% Chance of Precip.
Yesterday
High -- | Low -- °F
Precip. -- in
6:08 AM 5:42 PM
Waxing Gibbous, 74% visible
Pressure 29.92 in
Visibility 6.2 miles
Clouds Few 2000 ft
Dew Point 61 °F
Humidity 69%
Rainfall 0.00 in
Snow Depth Not available.
UV 1 out of 12
Pollen Not available.
Air Quality Not available.
Flu Activity Not available.
METAR MNJU 291300Z 07010KT 9999 FEW020 22/16 Q1013

More Conditions Fewer Conditions

Pressure 29.92 in
Visibility 6.2 miles
Clouds Few 2000 ft
Dew Point 61 °F
Humidity 69%
Rainfall 0.00 in
Snow Depth Not available.
UV 1 out of 12
Pollen Not available.
Air Quality Not available.
Flu Activity Not available.
METAR MNJU 291300Z 07010KT 9999 FEW020 22/16 Q1013

More Conditions Fewer Conditions

10-Day Weather Forecast

Almanac

Astronomy

Jan. 29, 2015 Rise Set
Actual Time
Civil Twilight
Nautical Twilight
Astronomical Twilight
Moon
Length of Visible Light
Length of Day
Tomorrow will be .
, % of the Moon is Illuminated

Today's Extremes

Country Highs Country Lows

Community

WunderPhotos

Upload Photos

1,791,426 photos uploaded!

WunderBlogs® & News

Nearby

Air Quality

  Air Quality AQ Index Pollutant
Not available.

Snow Depth

Station Depth Elevation

Earthquake Activity

City Distance Mag. Time & Date
Minimum magnitude displayed is 2.5.

Coastal Water Temperatures

Place Temperature

Nearby Weather Stations